sensor_id;sensor_type;location;lat;lon;timestamp;P1;durP1;ratioP1;P2;durP2;ratioP2
62256;SDS011;48240;52.962;5.790;2022-11-11T05:07:13;9.95;;;5.95;;
62256;SDS011;48240;52.962;5.790;2022-11-11T05:09:58;10.55;;;5.90;;
62256;SDS011;48240;52.962;5.790;2022-11-11T05:12:24;9.60;;;5.90;;
62256;SDS011;48240;52.962;5.790;2022-11-11T05:14:50;9.32;;;5.57;;
62256;SDS011;48240;52.962;5.790;2022-11-11T05:17:35;11.23;;;5.57;;
62256;SDS011;48240;52.962;5.790;2022-11-11T05:20:20;10.77;;;6.05;;
62256;SDS011;48240;52.962;5.790;2022-11-11T05:23:05;8.75;;;5.50;;
62256;SDS011;48240;52.962;5.790;2022-11-11T05:25:31;11.48;;;5.40;;
62256;SDS011;48240;52.962;5.790;2022-11-11T05:27:58;8.98;;;4.97;;
62256;SDS011;48240;52.962;5.790;2022-11-11T05:30:24;11.10;;;5.82;;
62256;SDS011;48240;52.962;5.790;2022-11-11T05:32:50;9.07;;;5.30;;
62256;SDS011;48240;52.962;5.790;2022-11-11T05:35:17;7.63;;;4.97;;
62256;SDS011;48240;52.962;5.790;2022-11-11T05:37:43;9.38;;;5.28;;
62256;SDS011;48240;52.962;5.790;2022-11-11T05:40:29;9.63;;;5.13;;
62256;SDS011;48240;52.962;5.790;2022-11-11T05:42:56;10.85;;;5.07;;
62256;SDS011;48240;52.962;5.790;2022-11-11T05:45:22;9.50;;;5.50;;
62256;SDS011;48240;52.962;5.790;2022-11-11T05:47:48;10.98;;;5.35;;
62256;SDS011;48240;52.962;5.790;2022-11-11T05:50:14;8.27;;;5.18;;
62256;SDS011;48240;52.962;5.790;2022-11-11T05:52:45;10.68;;;5.50;;
62256;SDS011;48240;52.962;5.790;2022-11-11T05:57:37;10.77;;;5.07;;
62256;SDS011;48240;52.962;5.790;2022-11-11T06:00:03;10.35;;;5.40;;
62256;SDS011;48240;52.962;5.790;2022-11-11T06:02:30;11.68;;;5.40;;
62256;SDS011;48240;52.962;5.790;2022-11-11T06:04:56;7.53;;;4.85;;
62256;SDS011;48240;52.962;5.790;2022-11-11T06:07:22;12.23;;;5.15;;
62256;SDS011;48240;52.962;5.790;2022-11-11T06:09:48;8.70;;;5.00;;
62256;SDS011;48240;52.962;5.790;2022-11-11T06:12:14;7.80;;;4.57;;
62256;SDS011;48240;52.962;5.790;2022-11-11T06:14:40;8.55;;;5.03;;
62256;SDS011;48240;52.962;5.790;2022-11-11T06:17:06;7.95;;;5.00;;
62256;SDS011;48240;52.962;5.790;2022-11-11T06:19:32;8.98;;;4.82;;
62256;SDS011;48240;52.962;5.790;2022-11-11T06:21:58;8.50;;;5.00;;
62256;SDS011;48240;52.962;5.790;2022-11-11T06:24:25;6.28;;;4.43;;
62256;SDS011;48240;52.962;5.790;2022-11-11T06:26:52;7.93;;;5.18;;
62256;SDS011;48240;52.962;5.790;2022-11-11T06:29:18;7.90;;;5.20;;
62256;SDS011;48240;52.962;5.790;2022-11-11T06:31:44;11.48;;;5.25;;
62256;SDS011;48240;52.962;5.790;2022-11-11T06:34:10;8.95;;;5.43;;
62256;SDS011;48240;52.962;5.790;2022-11-11T06:36:36;8.98;;;5.40;;
62256;SDS011;48240;52.962;5.790;2022-11-11T06:39:02;7.78;;;5.30;;
62256;SDS011;48240;52.962;5.790;2022-11-11T06:41:28;9.95;;;5.20;;
62256;SDS011;48240;52.962;5.790;2022-11-11T06:43:54;9.32;;;5.28;;
62256;SDS011;48240;52.962;5.790;2022-11-11T06:46:24;9.23;;;5.28;;
62256;SDS011;48240;52.962;5.790;2022-11-11T06:48:50;7.93;;;4.78;;
62256;SDS011;48240;52.962;5.790;2022-11-11T06:51:16;10.38;;;5.13;;
62256;SDS011;48240;52.962;5.790;2022-11-11T06:53:42;9.95;;;4.75;;
62256;SDS011;48240;52.962;5.790;2022-11-11T06:56:09;9.18;;;5.10;;
62256;SDS011;48240;52.962;5.790;2022-11-11T06:58:36;8.25;;;5.75;;
62256;SDS011;48240;52.962;5.790;2022-11-11T07:01:06;7.88;;;4.93;;
62256;SDS011;48240;52.962;5.790;2022-11-11T07:03:33;8.10;;;4.43;;
62256;SDS011;48240;52.962;5.790;2022-11-11T07:06:03;8.13;;;5.25;;
62256;SDS011;48240;52.962;5.790;2022-11-11T07:08:29;8.57;;;5.35;;
62256;SDS011;48240;52.962;5.790;2022-11-11T07:10:55;10.18;;;5.18;;
62256;SDS011;48240;52.962;5.790;2022-11-11T07:13:22;21.98;;;11.93;;
62256;SDS011;48240;52.962;5.790;2022-11-11T07:15:48;24.65;;;13.73;;
62256;SDS011;48240;52.962;5.790;2022-11-11T07:18:14;22.65;;;14.45;;
62256;SDS011;48240;52.962;5.790;2022-11-11T07:20:40;21.77;;;13.65;;
62256;SDS011;48240;52.962;5.790;2022-11-11T07:23:06;27.95;;;14.45;;
62256;SDS011;48240;52.962;5.790;2022-11-11T07:25:32;24.77;;;13.52;;
62256;SDS011;48240;52.962;5.790;2022-11-11T07:27:58;23.38;;;14.32;;
62256;SDS011;48240;52.962;5.790;2022-11-11T07:30:25;23.55;;;13.38;;
62256;SDS011;48240;52.962;5.790;2022-11-11T07:32:51;22.27;;;12.93;;
62256;SDS011;48240;52.962;5.790;2022-11-11T07:35:18;21.65;;;11.38;;
62256;SDS011;48240;52.962;5.790;2022-11-11T07:37:44;17.00;;;11.20;;
62256;SDS011;48240;52.962;5.790;2022-11-11T07:40:11;20.77;;;10.57;;
62256;SDS011;48240;52.962;5.790;2022-11-11T07:42:38;16.20;;;9.73;;
62256;SDS011;48240;52.962;5.790;2022-11-11T07:45:04;18.63;;;8.82;;
62256;SDS011;48240;52.962;5.790;2022-11-11T07:47:31;14.82;;;8.43;;
62256;SDS011;48240;52.962;5.790;2022-11-11T07:49:59;15.95;;;8.35;;
62256;SDS011;48240;52.962;5.790;2022-11-11T07:52:25;13.25;;;8.55;;
62256;SDS011;48240;52.962;5.790;2022-11-11T07:54:51;15.98;;;7.85;;
62256;SDS011;48240;52.962;5.790;2022-11-11T07:57:17;14.38;;;8.15;;
62256;SDS011;48240;52.962;5.790;2022-11-11T07:59:43;10.90;;;7.78;;
62256;SDS011;48240;52.962;5.790;2022-11-11T08:02:10;13.25;;;7.13;;
62256;SDS011;48240;52.962;5.790;2022-11-11T08:04:36;12.98;;;6.97;;
62256;SDS011;48240;52.962;5.790;2022-11-11T08:07:02;11.35;;;6.65;;
62256;SDS011;48240;52.962;5.790;2022-11-11T08:09:28;10.68;;;6.90;;
62256;SDS011;48240;52.962;5.790;2022-11-11T08:11:54;9.55;;;6.20;;
62256;SDS011;48240;52.962;5.790;2022-11-11T08:14:39;12.10;;;6.18;;
62256;SDS011;48240;52.962;5.790;2022-11-11T08:17:05;12.63;;;6.85;;
62256;SDS011;48240;52.962;5.790;2022-11-11T08:19:31;12.02;;;7.10;;
62256;SDS011;48240;52.962;5.790;2022-11-11T08:21:57;12.75;;;6.10;;
62256;SDS011;48240;52.962;5.790;2022-11-11T08:24:23;16.38;;;7.95;;
62256;SDS011;48240;52.962;5.790;2022-11-11T08:26:49;10.30;;;5.93;;
62256;SDS011;48240;52.962;5.790;2022-11-11T08:29:17;12.93;;;6.43;;
62256;SDS011;48240;52.962;5.790;2022-11-11T08:31:44;11.30;;;6.68;;
62256;SDS011;48240;52.962;5.790;2022-11-11T08:34:10;8.70;;;5.78;;
62256;SDS011;48240;52.962;5.790;2022-11-11T08:36:36;8.43;;;5.70;;
62256;SDS011;48240;52.962;5.790;2022-11-11T08:39:02;12.57;;;6.20;;
62256;SDS011;48240;52.962;5.790;2022-11-11T08:41:28;11.57;;;6.35;;
62256;SDS011;48240;52.962;5.790;2022-11-11T08:43:55;13.38;;;6.22;;
62256;SDS011;48240;52.962;5.790;2022-11-11T08:46:21;12.52;;;6.40;;
62256;SDS011;48240;52.962;5.790;2022-11-11T08:48:47;11.90;;;5.97;;
62256;SDS011;48240;52.962;5.790;2022-11-11T08:51:14;9.63;;;5.85;;
62256;SDS011;48240;52.962;5.790;2022-11-11T08:53:40;9.73;;;6.10;;
62256;SDS011;48240;52.962;5.790;2022-11-11T08:56:06;11.10;;;6.10;;
62256;SDS011;48240;52.962;5.790;2022-11-11T08:58:33;9.93;;;6.28;;
62256;SDS011;48240;52.962;5.790;2022-11-11T09:00:59;9.73;;;6.63;;
62256;SDS011;48240;52.962;5.790;2022-11-11T09:03:25;8.90;;;5.85;;
62256;SDS011;48240;52.962;5.790;2022-11-11T09:05:52;9.77;;;6.05;;
62256;SDS011;48240;52.962;5.790;2022-11-11T09:08:18;9.05;;;5.88;;
62256;SDS011;48240;52.962;5.790;2022-11-11T09:10:44;9.60;;;6.18;;
62256;SDS011;48240;52.962;5.790;2022-11-11T09:13:10;8.55;;;6.03;;
62256;SDS011;48240;52.962;5.790;2022-11-11T09:15:36;12.70;;;6.35;;
62256;SDS011;48240;52.962;5.790;2022-11-11T09:18:02;10.68;;;5.65;;
62256;SDS011;48240;52.962;5.790;2022-11-11T09:20:28;12.02;;;6.47;;
62256;SDS011;48240;52.962;5.790;2022-11-11T09:22:55;9.57;;;6.35;;
62256;SDS011;48240;52.962;5.790;2022-11-11T09:25:21;13.27;;;6.35;;
62256;SDS011;48240;52.962;5.790;2022-11-11T09:27:54;8.05;;;6.05;;
62256;SDS011;48240;52.962;5.790;2022-11-11T09:30:20;9.32;;;5.97;;
62256;SDS011;48240;52.962;5.790;2022-11-11T09:32:46;11.05;;;6.78;;
62256;SDS011;48240;52.962;5.790;2022-11-11T09:35:13;9.52;;;5.88;;
62256;SDS011;48240;52.962;5.790;2022-11-11T09:37:39;10.77;;;6.32;;
62256;SDS011;48240;52.962;5.790;2022-11-11T09:40:05;8.23;;;6.35;;
62256;SDS011;48240;52.962;5.790;2022-11-11T09:42:36;8.05;;;6.00;;
62256;SDS011;48240;52.962;5.790;2022-11-11T09:47:41;9.63;;;6.15;;
62256;SDS011;48240;52.962;5.790;2022-11-11T09:50:11;8.40;;;6.40;;
62256;SDS011;48240;52.962;5.790;2022-11-11T09:55:05;8.90;;;6.50;;
62256;SDS011;48240;52.962;5.790;2022-11-11T09:57:38;10.68;;;6.85;;
62256;SDS011;48240;52.962;5.790;2022-11-11T10:00:06;11.88;;;6.57;;
62256;SDS011;48240;52.962;5.790;2022-11-11T10:02:54;9.30;;;6.57;;
62256;SDS011;48240;52.962;5.790;2022-11-11T10:13:07;8.20;;;6.68;;
62256;SDS011;48240;52.962;5.790;2022-11-11T10:15:37;8.90;;;6.40;;
62256;SDS011;48240;52.962;5.790;2022-11-11T10:18:07;9.55;;;6.63;;
62256;SDS011;48240;52.962;5.790;2022-11-11T10:20:37;10.07;;;6.68;;
62256;SDS011;48240;52.962;5.790;2022-11-11T10:23:17;10.70;;;6.50;;
62256;SDS011;48240;52.962;5.790;2022-11-11T10:25:52;11.48;;;6.93;;
62256;SDS011;48240;52.962;5.790;2022-11-11T10:28:19;11.15;;;6.72;;
62256;SDS011;48240;52.962;5.790;2022-11-11T10:30:46;10.30;;;6.70;;
62256;SDS011;48240;52.962;5.790;2022-11-11T10:33:18;9.65;;;6.93;;
62256;SDS011;48240;52.962;5.790;2022-11-11T10:35:46;11.00;;;7.07;;
62256;SDS011;48240;52.962;5.790;2022-11-11T10:38:25;9.18;;;6.80;;
62256;SDS011;48240;52.962;5.790;2022-11-11T10:43:24;8.40;;;6.75;;
62256;SDS011;48240;52.962;5.790;2022-11-11T10:46:33;11.75;;;6.38;;
62256;SDS011;48240;52.962;5.790;2022-11-11T10:51:05;11.98;;;7.10;;
62256;SDS011;48240;52.962;5.790;2022-11-11T10:53:42;8.25;;;6.32;;
62256;SDS011;48240;52.962;5.790;2022-11-11T10:59:13;10.45;;;6.40;;
62256;SDS011;48240;52.962;5.790;2022-11-11T11:01:50;7.32;;;6.20;;
62256;SDS011;48240;52.962;5.790;2022-11-11T11:04:35;10.18;;;7.13;;
62256;SDS011;48240;52.962;5.790;2022-11-11T11:07:03;7.93;;;6.50;;
62256;SDS011;48240;52.962;5.790;2022-11-11T11:09:34;10.70;;;6.88;;
62256;SDS011;48240;52.962;5.790;2022-11-11T11:15:05;11.75;;;6.85;;
62256;SDS011;48240;52.962;5.790;2022-11-11T11:17:27;9.15;;;7.03;;
62256;SDS011;48240;52.962;5.790;2022-11-11T11:22:46;8.45;;;6.95;;
62256;SDS011;48240;52.962;5.790;2022-11-11T11:25:13;9.02;;;6.80;;
62256;SDS011;48240;52.962;5.790;2022-11-11T11:27:39;11.13;;;6.55;;
62256;SDS011;48240;52.962;5.790;2022-11-11T11:30:15;10.77;;;6.78;;
62256;SDS011;48240;52.962;5.790;2022-11-11T11:32:43;10.98;;;7.55;;
62256;SDS011;48240;52.962;5.790;2022-11-11T11:35:30;11.75;;;7.50;;
62256;SDS011;48240;52.962;5.790;2022-11-11T11:37:56;9.45;;;7.05;;
62256;SDS011;48240;52.962;5.790;2022-11-11T11:40:23;8.65;;;6.50;;
62256;SDS011;48240;52.962;5.790;2022-11-11T11:42:49;8.95;;;7.35;;
62256;SDS011;48240;52.962;5.790;2022-11-11T11:47:46;13.70;;;7.30;;
62256;SDS011;48240;52.962;5.790;2022-11-11T11:50:20;9.65;;;7.45;;
62256;SDS011;48240;52.962;5.790;2022-11-11T11:55:35;8.70;;;7.13;;
62256;SDS011;48240;52.962;5.790;2022-11-11T12:16:24;11.20;;;7.30;;
62256;SDS011;48240;52.962;5.790;2022-11-11T12:24:46;10.65;;;7.43;;
62256;SDS011;48240;52.962;5.790;2022-11-11T12:27:17;10.38;;;7.22;;
62256;SDS011;48240;52.962;5.790;2022-11-11T12:40:21;10.52;;;7.43;;
62256;SDS011;48240;52.962;5.790;2022-11-11T12:45:30;11.60;;;7.90;;
62256;SDS011;48240;52.962;5.790;2022-11-11T12:55:46;11.48;;;7.80;;
62256;SDS011;48240;52.962;5.790;2022-11-11T12:58:19;10.75;;;7.38;;
62256;SDS011;48240;52.962;5.790;2022-11-11T13:00:50;11.40;;;7.47;;
62256;SDS011;48240;52.962;5.790;2022-11-11T13:03:30;9.77;;;7.32;;
62256;SDS011;48240;52.962;5.790;2022-11-11T13:10:58;10.50;;;7.97;;
62256;SDS011;48240;52.962;5.790;2022-11-11T13:13:50;8.68;;;7.25;;
62256;SDS011;48240;52.962;5.790;2022-11-11T13:16:18;9.82;;;7.55;;
62256;SDS011;48240;52.962;5.790;2022-11-11T13:21:19;11.93;;;8.13;;
62256;SDS011;48240;52.962;5.790;2022-11-11T13:23:47;14.10;;;7.72;;
62256;SDS011;48240;52.962;5.790;2022-11-11T13:26:22;13.98;;;8.68;;
62256;SDS011;48240;52.962;5.790;2022-11-11T13:28:49;22.83;;;8.43;;
62256;SDS011;48240;52.962;5.790;2022-11-11T13:33:45;8.40;;;7.30;;
62256;SDS011;48240;52.962;5.790;2022-11-11T13:36:13;10.98;;;8.20;;
62256;SDS011;48240;52.962;5.790;2022-11-11T13:41:18;9.68;;;7.22;;
62256;SDS011;48240;52.962;5.790;2022-11-11T13:43:45;9.27;;;7.68;;
62256;SDS011;48240;52.962;5.790;2022-11-11T13:46:27;14.82;;;8.85;;
62256;SDS011;48240;52.962;5.790;2022-11-11T13:48:55;20.10;;;11.32;;
62256;SDS011;48240;52.962;5.790;2022-11-11T13:53:50;86.55;;;38.08;;
62256;SDS011;48240;52.962;5.790;2022-11-11T13:56:23;121.82;;;52.38;;
62256;SDS011;48240;52.962;5.790;2022-11-11T13:58:50;127.35;;;60.88;;
62256;SDS011;48240;52.962;5.790;2022-11-11T14:01:17;164.70;;;81.10;;
62256;SDS011;48240;52.962;5.790;2022-11-11T14:13:53;113.15;;;48.22;;
62256;SDS011;48240;52.962;5.790;2022-11-11T14:21:49;94.65;;;43.45;;
62256;SDS011;48240;52.962;5.790;2022-11-11T14:24:22;92.70;;;43.88;;
62256;SDS011;48240;52.962;5.790;2022-11-11T14:26:59;94.40;;;43.50;;
62256;SDS011;48240;52.962;5.790;2022-11-11T14:29:30;85.03;;;40.65;;
62256;SDS011;48240;52.962;5.790;2022-11-11T14:34:44;80.10;;;38.35;;
62256;SDS011;48240;52.962;5.790;2022-11-11T14:37:23;79.60;;;38.55;;
62256;SDS011;48240;52.962;5.790;2022-11-11T14:39:52;78.45;;;36.25;;
62256;SDS011;48240;52.962;5.790;2022-11-11T14:45:01;66.82;;;35.72;;
62256;SDS011;48240;52.962;5.790;2022-11-11T14:47:34;64.88;;;34.50;;
62256;SDS011;48240;52.962;5.790;2022-11-11T14:50:00;64.78;;;33.90;;
62256;SDS011;48240;52.962;5.790;2022-11-11T14:55:04;63.80;;;30.90;;
62256;SDS011;48240;52.962;5.790;2022-11-11T15:02:37;50.45;;;27.58;;
62256;SDS011;48240;52.962;5.790;2022-11-11T15:05:10;62.10;;;28.98;;
62256;SDS011;48240;52.962;5.790;2022-11-11T15:10:19;47.83;;;25.75;;
62256;SDS011;48240;52.962;5.790;2022-11-11T15:15:27;49.20;;;24.88;;
62256;SDS011;48240;52.962;5.790;2022-11-11T15:28:41;46.80;;;22.77;;
62256;SDS011;48240;52.962;5.790;2022-11-11T15:31:22;44.08;;;22.40;;
62256;SDS011;48240;52.962;5.790;2022-11-11T15:38:51;39.38;;;20.63;;
62256;SDS011;48240;52.962;5.790;2022-11-11T15:41:22;41.40;;;21.63;;
62256;SDS011;48240;52.962;5.790;2022-11-11T15:46:20;36.00;;;19.50;;
62256;SDS011;48240;52.962;5.790;2022-11-11T15:48:47;40.20;;;19.83;;
62256;SDS011;48240;52.962;5.790;2022-11-11T15:51:29;37.92;;;19.95;;
62256;SDS011;48240;52.962;5.790;2022-11-11T15:54:08;38.30;;;20.27;;
62256;SDS011;48240;52.962;5.790;2022-11-11T15:56:35;32.58;;;18.92;;
62256;SDS011;48240;52.962;5.790;2022-11-11T15:59:20;32.63;;;18.40;;
62256;SDS011;48240;52.962;5.790;2022-11-11T16:01:47;36.63;;;17.70;;
62256;SDS011;48240;52.962;5.790;2022-11-11T16:04:15;36.85;;;18.85;;
62256;SDS011;48240;52.962;5.790;2022-11-11T16:06:42;32.15;;;17.83;;
62256;SDS011;48240;52.962;5.790;2022-11-11T16:09:09;31.33;;;17.38;;
62256;SDS011;48240;52.962;5.790;2022-11-11T16:11:37;31.67;;;17.00;;
62256;SDS011;48240;52.962;5.790;2022-11-11T16:14:04;30.75;;;16.45;;
62256;SDS011;48240;52.962;5.790;2022-11-11T16:16:31;29.67;;;16.30;;
62256;SDS011;48240;52.962;5.790;2022-11-11T16:19:00;27.35;;;15.52;;
62256;SDS011;48240;52.962;5.790;2022-11-11T16:21:41;27.85;;;15.13;;
62256;SDS011;48240;52.962;5.790;2022-11-11T16:24:41;32.88;;;15.32;;
62256;SDS011;48240;52.962;5.790;2022-11-11T16:27:01;24.55;;;14.73;;
62256;SDS011;48240;52.962;5.790;2022-11-11T16:29:29;27.85;;;16.08;;
62256;SDS011;48240;52.962;5.790;2022-11-11T16:31:57;25.33;;;15.65;;
62256;SDS011;48240;52.962;5.790;2022-11-11T16:39:25;23.10;;;14.07;;
62256;SDS011;48240;52.962;5.790;2022-11-11T16:41:52;30.95;;;15.40;;
62256;SDS011;48240;52.962;5.790;2022-11-11T16:44:38;23.60;;;14.18;;
62256;SDS011;48240;52.962;5.790;2022-11-11T16:50:04;27.98;;;14.75;;
62256;SDS011;48240;52.962;5.790;2022-11-11T16:52:37;26.42;;;14.75;;
62256;SDS011;48240;52.962;5.790;2022-11-11T16:55:04;23.83;;;13.90;;
62256;SDS011;48240;52.962;5.790;2022-11-11T16:57:31;26.23;;;14.55;;
62256;SDS011;48240;52.962;5.790;2022-11-11T16:59:59;25.77;;;13.30;;
62256;SDS011;48240;52.962;5.790;2022-11-11T17:02:26;25.90;;;14.07;;
62256;SDS011;48240;52.962;5.790;2022-11-11T17:04:53;24.48;;;13.95;;
62256;SDS011;48240;52.962;5.790;2022-11-11T17:07:38;23.98;;;13.60;;
62256;SDS011;48240;52.962;5.790;2022-11-11T17:12:34;24.95;;;13.75;;
62256;SDS011;48240;52.962;5.790;2022-11-11T17:15:08;23.52;;;13.65;;
62256;SDS011;48240;52.962;5.790;2022-11-11T17:17:35;20.90;;;13.27;;
62256;SDS011;48240;52.962;5.790;2022-11-11T17:22:44;35.17;;;16.17;;
62256;SDS011;48240;52.962;5.790;2022-11-11T17:25:11;34.80;;;15.45;;
62256;SDS011;48240;52.962;5.790;2022-11-11T17:27:37;23.48;;;14.95;;
62256;SDS011;48240;52.962;5.790;2022-11-11T17:30:03;24.90;;;15.18;;
62256;SDS011;48240;52.962;5.790;2022-11-11T17:32:30;25.00;;;15.75;;
62256;SDS011;48240;52.962;5.790;2022-11-11T17:34:56;29.92;;;15.18;;
62256;SDS011;48240;52.962;5.790;2022-11-11T17:37:22;22.58;;;15.18;;
62256;SDS011;48240;52.962;5.790;2022-11-11T17:39:48;21.92;;;14.77;;
62256;SDS011;48240;52.962;5.790;2022-11-11T17:42:14;36.25;;;15.18;;
62256;SDS011;48240;52.962;5.790;2022-11-11T17:44:40;25.13;;;14.80;;
62256;SDS011;48240;52.962;5.790;2022-11-11T17:47:06;24.70;;;15.10;;
62256;SDS011;48240;52.962;5.790;2022-11-11T17:49:33;22.00;;;13.65;;
62256;SDS011;48240;52.962;5.790;2022-11-11T17:51:59;22.20;;;13.95;;
62256;SDS011;48240;52.962;5.790;2022-11-11T17:54:25;20.77;;;13.60;;
62256;SDS011;48240;52.962;5.790;2022-11-11T17:56:53;24.65;;;14.15;;
62256;SDS011;48240;52.962;5.790;2022-11-11T17:59:19;23.73;;;13.93;;
62256;SDS011;48240;52.962;5.790;2022-11-11T18:01:45;22.02;;;13.95;;
62256;SDS011;48240;52.962;5.790;2022-11-11T18:04:11;23.80;;;13.30;;
62256;SDS011;48240;52.962;5.790;2022-11-11T18:06:37;25.77;;;13.90;;
62256;SDS011;48240;52.962;5.790;2022-11-11T18:09:03;21.42;;;13.85;;
62256;SDS011;48240;52.962;5.790;2022-11-11T18:11:29;19.75;;;13.07;;
62256;SDS011;48240;52.962;5.790;2022-11-11T18:13:55;23.15;;;13.50;;
62256;SDS011;48240;52.962;5.790;2022-11-11T18:16:21;22.48;;;13.02;;
62256;SDS011;48240;52.962;5.790;2022-11-11T18:18:47;22.60;;;13.10;;
62256;SDS011;48240;52.962;5.790;2022-11-11T18:21:13;18.67;;;12.82;;
62256;SDS011;48240;52.962;5.790;2022-11-11T18:23:40;20.73;;;12.27;;
62256;SDS011;48240;52.962;5.790;2022-11-11T18:26:06;17.52;;;13.07;;
62256;SDS011;48240;52.962;5.790;2022-11-11T18:28:34;19.40;;;12.18;;
62256;SDS011;48240;52.962;5.790;2022-11-11T18:31:02;23.35;;;11.93;;
62256;SDS011;48240;52.962;5.790;2022-11-11T18:33:29;21.42;;;12.30;;
62256;SDS011;48240;52.962;5.790;2022-11-11T18:36:00;18.20;;;11.95;;
62256;SDS011;48240;52.962;5.790;2022-11-11T18:38:27;20.08;;;12.32;;
62256;SDS011;48240;52.962;5.790;2022-11-11T18:41:00;19.27;;;12.32;;
62256;SDS011;48240;52.962;5.790;2022-11-11T18:43:26;27.50;;;11.88;;
62256;SDS011;48240;52.962;5.790;2022-11-11T18:45:52;27.77;;;11.48;;
62256;SDS011;48240;52.962;5.790;2022-11-11T18:48:18;25.70;;;12.07;;
62256;SDS011;48240;52.962;5.790;2022-11-11T18:50:51;22.25;;;11.82;;
62256;SDS011;48240;52.962;5.790;2022-11-11T18:53:17;14.45;;;10.68;;
62256;SDS011;48240;52.962;5.790;2022-11-11T18:55:43;15.60;;;11.02;;
62256;SDS011;48240;52.962;5.790;2022-11-11T18:58:10;20.40;;;11.48;;
62256;SDS011;48240;52.962;5.790;2022-11-11T19:00:36;14.68;;;10.77;;
62256;SDS011;48240;52.962;5.790;2022-11-11T19:03:02;22.45;;;11.23;;
62256;SDS011;48240;52.962;5.790;2022-11-11T19:05:28;19.10;;;11.32;;
62256;SDS011;48240;52.962;5.790;2022-11-11T19:07:54;18.38;;;10.65;;
62256;SDS011;48240;52.962;5.790;2022-11-11T19:10:20;23.63;;;11.18;;
62256;SDS011;48240;52.962;5.790;2022-11-11T19:12:49;16.85;;;10.50;;
62256;SDS011;48240;52.962;5.790;2022-11-11T19:15:15;19.50;;;10.32;;
62256;SDS011;48240;52.962;5.790;2022-11-11T19:17:41;26.45;;;10.18;;
62256;SDS011;48240;52.962;5.790;2022-11-11T19:20:07;18.10;;;10.13;;
62256;SDS011;48240;52.962;5.790;2022-11-11T19:22:34;17.17;;;10.57;;
62256;SDS011;48240;52.962;5.790;2022-11-11T19:25:00;15.63;;;9.52;;
62256;SDS011;48240;52.962;5.790;2022-11-11T19:27:30;23.80;;;9.75;;
62256;SDS011;48240;52.962;5.790;2022-11-11T19:29:56;14.65;;;9.73;;
62256;SDS011;48240;52.962;5.790;2022-11-11T19:32:23;17.05;;;10.20;;
62256;SDS011;48240;52.962;5.790;2022-11-11T19:34:49;16.48;;;10.32;;
62256;SDS011;48240;52.962;5.790;2022-11-11T19:37:15;21.25;;;9.65;;
62256;SDS011;48240;52.962;5.790;2022-11-11T19:39:43;18.85;;;9.88;;
62256;SDS011;48240;52.962;5.790;2022-11-11T19:42:09;16.50;;;9.95;;
62256;SDS011;48240;52.962;5.790;2022-11-11T19:44:36;18.42;;;9.77;;
62256;SDS011;48240;52.962;5.790;2022-11-11T19:47:02;14.80;;;9.80;;
62256;SDS011;48240;52.962;5.790;2022-11-11T19:49:28;14.77;;;9.68;;
62256;SDS011;48240;52.962;5.790;2022-11-11T19:51:54;12.13;;;9.45;;
62256;SDS011;48240;52.962;5.790;2022-11-11T19:54:20;26.05;;;9.30;;
62256;SDS011;48240;52.962;5.790;2022-11-11T19:56:46;15.00;;;9.95;;
62256;SDS011;48240;52.962;5.790;2022-11-11T19:59:12;14.13;;;9.68;;
62256;SDS011;48240;52.962;5.790;2022-11-11T20:01:39;14.32;;;9.50;;
62256;SDS011;48240;52.962;5.790;2022-11-11T20:04:06;13.70;;;8.82;;
62256;SDS011;48240;52.962;5.790;2022-11-11T20:06:33;15.35;;;8.82;;
62256;SDS011;48240;52.962;5.790;2022-11-11T20:09:04;13.07;;;9.10;;
62256;SDS011;48240;52.962;5.790;2022-11-11T20:11:31;14.32;;;8.95;;
62256;SDS011;48240;52.962;5.790;2022-11-11T20:13:57;14.75;;;9.02;;
62256;SDS011;48240;52.962;5.790;2022-11-11T20:16:23;15.55;;;8.85;;
62256;SDS011;48240;52.962;5.790;2022-11-11T20:18:57;13.65;;;8.45;;
62256;SDS011;48240;52.962;5.790;2022-11-11T20:21:23;11.02;;;8.93;;
62256;SDS011;48240;52.962;5.790;2022-11-11T20:23:49;13.48;;;8.80;;
62256;SDS011;48240;52.962;5.790;2022-11-11T20:26:16;15.75;;;9.02;;
62256;SDS011;48240;52.962;5.790;2022-11-11T20:28:42;13.77;;;8.88;;
62256;SDS011;48240;52.962;5.790;2022-11-11T20:31:09;17.17;;;9.02;;
62256;SDS011;48240;52.962;5.790;2022-11-11T20:33:35;16.88;;;9.13;;
62256;SDS011;48240;52.962;5.790;2022-11-11T20:36:02;14.48;;;9.45;;
62256;SDS011;48240;52.962;5.790;2022-11-11T20:38:29;16.95;;;8.93;;
62256;SDS011;48240;52.962;5.790;2022-11-11T20:41:14;15.30;;;8.65;;
62256;SDS011;48240;52.962;5.790;2022-11-11T20:43:40;15.93;;;8.85;;
62256;SDS011;48240;52.962;5.790;2022-11-11T20:48:33;11.27;;;8.57;;
62256;SDS011;48240;52.962;5.790;2022-11-11T20:51:00;15.88;;;8.68;;
62256;SDS011;48240;52.962;5.790;2022-11-11T20:53:26;15.60;;;8.05;;
62256;SDS011;48240;52.962;5.790;2022-11-11T20:55:52;13.18;;;8.25;;
62256;SDS011;48240;52.962;5.790;2022-11-11T20:58:18;13.88;;;7.90;;
62256;SDS011;48240;52.962;5.790;2022-11-11T21:00:45;11.20;;;7.30;;
62256;SDS011;48240;52.962;5.790;2022-11-11T21:03:11;12.63;;;7.95;;
62256;SDS011;48240;52.962;5.790;2022-11-11T21:05:37;11.68;;;7.60;;
62256;SDS011;48240;52.962;5.790;2022-11-11T21:08:03;13.30;;;7.68;;
62256;SDS011;48240;52.962;5.790;2022-11-11T21:10:29;12.30;;;7.95;;
62256;SDS011;48240;52.962;5.790;2022-11-11T21:12:55;10.88;;;7.32;;
62256;SDS011;48240;52.962;5.790;2022-11-11T21:15:21;11.50;;;7.00;;
62256;SDS011;48240;52.962;5.790;2022-11-11T21:17:47;9.05;;;6.78;;
62256;SDS011;48240;52.962;5.790;2022-11-11T21:20:13;12.02;;;7.18;;
62256;SDS011;48240;52.962;5.790;2022-11-11T21:22:39;13.15;;;7.38;;
62256;SDS011;48240;52.962;5.790;2022-11-11T21:25:05;14.50;;;7.82;;
62256;SDS011;48240;52.962;5.790;2022-11-11T21:27:32;13.85;;;7.07;;
62256;SDS011;48240;52.962;5.790;2022-11-11T21:29:58;13.50;;;6.72;;
62256;SDS011;48240;52.962;5.790;2022-11-11T21:32:24;12.27;;;7.03;;
62256;SDS011;48240;52.962;5.790;2022-11-11T21:34:50;11.57;;;7.25;;
62256;SDS011;48240;52.962;5.790;2022-11-11T21:37:16;11.23;;;7.00;;
62256;SDS011;48240;52.962;5.790;2022-11-11T21:39:42;9.93;;;7.07;;
62256;SDS011;48240;52.962;5.790;2022-11-11T21:42:08;12.50;;;7.22;;
62256;SDS011;48240;52.962;5.790;2022-11-11T21:44:34;9.70;;;6.30;;
62256;SDS011;48240;52.962;5.790;2022-11-11T21:47:00;9.80;;;6.47;;
62256;SDS011;48240;52.962;5.790;2022-11-11T21:49:26;11.30;;;6.90;;
62256;SDS011;48240;52.962;5.790;2022-11-11T21:51:52;8.25;;;6.50;;
62256;SDS011;48240;52.962;5.790;2022-11-11T21:54:18;9.15;;;6.15;;
62256;SDS011;48240;52.962;5.790;2022-11-11T21:56:45;9.52;;;6.43;;
62256;SDS011;48240;52.962;5.790;2022-11-11T21:59:11;9.35;;;6.45;;
62256;SDS011;48240;52.962;5.790;2022-11-11T22:01:38;9.95;;;6.45;;
62256;SDS011;48240;52.962;5.790;2022-11-11T22:04:05;13.80;;;6.40;;
62256;SDS011;48240;52.962;5.790;2022-11-11T22:06:32;13.82;;;6.07;;
62256;SDS011;48240;52.962;5.790;2022-11-11T22:08:58;9.38;;;6.43;;
62256;SDS011;48240;52.962;5.790;2022-11-11T22:11:26;13.27;;;7.35;;
62256;SDS011;48240;52.962;5.790;2022-11-11T22:13:52;9.13;;;6.15;;
62256;SDS011;48240;52.962;5.790;2022-11-11T22:16:20;8.23;;;5.90;;
62256;SDS011;48240;52.962;5.790;2022-11-11T22:18:46;9.07;;;6.20;;
62256;SDS011;48240;52.962;5.790;2022-11-11T22:21:19;9.55;;;5.68;;
62256;SDS011;48240;52.962;5.790;2022-11-11T22:23:47;8.07;;;5.85;;
62256;SDS011;48240;52.962;5.790;2022-11-11T22:26:13;7.60;;;6.00;;
62256;SDS011;48240;52.962;5.790;2022-11-11T22:28:40;9.63;;;6.20;;